createdAt,value
2024-05-09T00:00:39.787Z,4.68
2024-05-09T00:03:07.404Z,6.03
2024-05-09T00:05:31.115Z,6.43
2024-05-09T00:07:54.322Z,7.63
2024-05-09T00:10:25.357Z,5.00
2024-05-09T00:12:56.090Z,5.70
2024-05-09T00:15:19.279Z,5.35
2024-05-09T00:17:42.674Z,5.07
2024-05-09T00:20:14.289Z,5.72
2024-05-09T00:22:44.108Z,6.30
2024-05-09T00:25:08.932Z,5.95
2024-05-09T00:27:32.289Z,5.70
2024-05-09T00:29:55.406Z,6.90
2024-05-09T00:32:18.773Z,5.97
2024-05-09T00:34:42.268Z,5.35
2024-05-09T00:37:05.568Z,5.63
2024-05-09T00:39:28.885Z,7.65
2024-05-09T00:41:52.061Z,4.40
2024-05-09T00:44:15.472Z,5.80
2024-05-09T00:46:39.252Z,4.07
2024-05-09T00:49:02.662Z,7.28
2024-05-09T00:51:25.966Z,5.60
2024-05-09T00:53:49.436Z,6.67
2024-05-09T00:56:13.510Z,4.53
2024-05-09T00:58:36.897Z,4.35
2024-05-09T01:01:01.256Z,7.13
2024-05-09T01:03:24.925Z,6.20
2024-05-09T01:05:48.394Z,4.47
2024-05-09T01:08:12.438Z,5.20
2024-05-09T01:10:36.692Z,6.38
2024-05-09T01:13:00.069Z,4.35
2024-05-09T01:15:23.293Z,6.53
2024-05-09T01:17:47.137Z,4.20
2024-05-09T01:20:13.143Z,4.57
2024-05-09T01:22:44.947Z,7.57
2024-05-09T01:25:08.220Z,7.85
2024-05-09T01:27:32.350Z,6.72
2024-05-09T01:29:55.806Z,5.07
2024-05-09T01:32:19.154Z,5.55
2024-05-09T01:34:42.568Z,5.50
2024-05-09T01:37:05.973Z,4.85
2024-05-09T01:39:29.350Z,5.45
2024-05-09T01:41:52.550Z,5.60
2024-05-09T01:44:15.806Z,6.07
2024-05-09T01:46:39.134Z,6.25
2024-05-09T01:49:04.640Z,5.32
2024-05-09T01:51:27.906Z,5.32
2024-05-09T01:53:51.180Z,4.43
2024-05-09T01:56:14.496Z,4.57
2024-05-09T01:58:37.792Z,5.40
2024-05-09T02:01:01.146Z,6.63
2024-05-09T02:03:24.459Z,6.18
2024-05-09T02:05:52.239Z,4.77
2024-05-09T02:08:17.888Z,5.93
2024-05-09T02:10:41.726Z,6.20
2024-05-09T02:13:09.787Z,6.45
2024-05-09T02:15:34.291Z,5.70
2024-05-09T02:17:57.649Z,6.53
2024-05-09T02:20:30.178Z,6.47
2024-05-09T02:22:59.074Z,7.97
2024-05-09T02:25:23.617Z,6.35
2024-05-09T02:27:46.784Z,6.07
2024-05-09T02:30:18.781Z,5.50
2024-05-09T02:32:49.413Z,6.43
2024-05-09T02:35:12.953Z,6.88
2024-05-09T02:37:36.245Z,5.78
2024-05-09T02:39:59.417Z,6.72
2024-05-09T02:42:22.962Z,5.13
2024-05-09T02:44:46.177Z,5.60
2024-05-09T02:47:09.516Z,11.20
2024-05-09T02:49:32.886Z,7.50
2024-05-09T02:51:56.229Z,6.38
2024-05-09T02:54:19.782Z,6.23
2024-05-09T02:56:43.285Z,5.97
2024-05-09T02:59:06.636Z,7.30
2024-05-09T03:01:29.891Z,5.60
2024-05-09T03:03:53.374Z,6.00
2024-05-09T03:06:17.160Z,6.10
2024-05-09T03:08:45.294Z,6.45
2024-05-09T03:11:08.695Z,5.43
2024-05-09T03:13:32.146Z,4.30
2024-05-09T03:15:55.354Z,4.93
2024-05-09T03:18:21.847Z,7.00
2024-05-09T03:20:45.604Z,7.63
2024-05-09T03:23:09.953Z,6.78
2024-05-09T03:25:34.558Z,5.40
2024-05-09T03:27:58.051Z,6.45
2024-05-09T03:30:31.126Z,6.47
2024-05-09T03:33:03.087Z,7.95
2024-05-09T03:35:26.662Z,5.45
2024-05-09T03:37:49.960Z,5.65
2024-05-09T03:40:20.779Z,4.57
2024-05-09T03:42:47.198Z,5.30
2024-05-09T03:45:10.349Z,7.82
2024-05-09T03:47:35.670Z,4.97
2024-05-09T03:49:59.053Z,3.78
2024-05-09T03:52:22.269Z,3.60
2024-05-09T03:54:49.505Z,4.47
2024-05-09T03:57:13.067Z,4.75
2024-05-09T03:59:37.089Z,6.00
2024-05-09T04:02:00.554Z,5.40
2024-05-09T04:04:24.010Z,5.40
2024-05-09T04:06:47.241Z,5.27
2024-05-09T04:09:10.414Z,3.88
2024-05-09T04:11:33.775Z,5.13
2024-05-09T04:13:57.124Z,4.30
2024-05-09T04:16:20.333Z,4.40
2024-05-09T04:18:43.708Z,5.23
2024-05-09T04:21:07.102Z,6.57
2024-05-09T04:23:30.567Z,6.53
2024-05-09T04:25:53.934Z,3.90
2024-05-09T04:28:17.237Z,10.88
2024-05-09T04:30:41.677Z,4.07
2024-05-09T04:33:06.731Z,5.18
2024-05-09T04:35:31.127Z,6.90
2024-05-09T04:37:54.518Z,5.85
2024-05-09T04:40:24.463Z,4.80
2024-05-09T04:42:54.638Z,6.60
2024-05-09T04:45:17.837Z,4.82
2024-05-09T04:47:41.301Z,6.50
2024-05-09T04:50:08.823Z,4.72
2024-05-09T04:52:34.547Z,5.20
2024-05-09T04:54:58.962Z,5.33
2024-05-09T04:57:22.293Z,3.72
2024-05-09T04:59:45.483Z,6.07
2024-05-09T05:02:08.805Z,3.55
2024-05-09T05:04:32.202Z,4.15
2024-05-09T05:06:56.024Z,5.23
2024-05-09T05:09:22.227Z,4.68
2024-05-09T05:11:45.462Z,3.80
2024-05-09T05:14:08.782Z,4.25
2024-05-09T05:16:32.152Z,3.88
2024-05-09T05:18:55.443Z,6.83
2024-05-09T05:21:19.070Z,6.75
2024-05-09T05:23:42.495Z,6.43
2024-05-09T05:26:06.019Z,4.97
2024-05-09T05:28:29.228Z,8.23
2024-05-09T05:30:52.461Z,7.83
2024-05-09T05:33:18.979Z,4.43
2024-05-09T05:35:43.116Z,6.78
2024-05-09T05:38:07.699Z,6.38
2024-05-09T05:40:36.690Z,4.43
2024-05-09T05:43:01.542Z,4.80
2024-05-09T05:45:24.783Z,4.10
2024-05-09T05:47:48.329Z,3.17
2024-05-09T05:50:20.918Z,4.10
2024-05-09T05:52:50.999Z,3.63
2024-05-09T05:55:14.281Z,3.17
2024-05-09T06:00:29.798Z,5.13
2024-05-09T06:03:00.672Z,3.90
2024-05-09T06:05:26.046Z,4.97
2024-05-09T06:07:51.211Z,7.93
2024-05-09T06:10:21.510Z,4.90
2024-05-09T06:12:48.937Z,3.47
2024-05-09T06:15:12.240Z,3.05
2024-05-09T06:17:35.884Z,6.05
2024-05-09T06:20:01.574Z,3.20
2024-05-09T06:22:25.064Z,8.75
2024-05-09T06:24:48.305Z,5.22
2024-05-09T06:27:11.593Z,5.32
2024-05-09T06:29:39.957Z,4.07
2024-05-09T06:32:06.161Z,4.10
2024-05-09T06:34:31.869Z,4.32
2024-05-09T06:36:55.201Z,3.78
2024-05-09T06:39:18.455Z,8.18
2024-05-09T06:41:41.960Z,5.15
2024-05-09T06:44:05.618Z,4.30
2024-05-09T06:46:29.591Z,3.65
2024-05-09T06:48:53.461Z,4.68
2024-05-09T06:51:19.294Z,5.80
2024-05-09T06:53:42.747Z,3.78
2024-05-09T06:56:06.865Z,3.10
2024-05-09T06:58:30.141Z,7.68
2024-05-09T07:00:53.462Z,5.65
2024-05-09T07:03:18.442Z,6.13
2024-05-09T07:05:43.291Z,6.88
2024-05-09T07:08:07.900Z,3.20
2024-05-09T07:10:35.094Z,5.18
2024-05-09T07:12:59.460Z,3.83
2024-05-09T07:15:24.993Z,4.22
2024-05-09T07:17:48.622Z,3.70
2024-05-09T07:20:19.854Z,4.63
2024-05-09T07:22:50.618Z,7.03
2024-05-09T07:25:13.975Z,6.25
2024-05-09T07:27:37.245Z,4.72
2024-05-09T07:30:00.641Z,4.30
2024-05-09T07:32:27.121Z,4.27
2024-05-09T07:34:50.571Z,5.18
2024-05-09T07:37:14.111Z,4.07
2024-05-09T07:39:37.420Z,3.40
2024-05-09T07:42:00.802Z,5.80
2024-05-09T07:44:24.082Z,4.43
2024-05-09T07:47:48.579Z,4.25
2024-05-09T07:53:22.071Z,3.78
2024-05-09T07:54:47.223Z,5.47
2024-05-09T07:57:10.587Z,5.93
2024-05-09T07:59:38.050Z,3.75
2024-05-09T08:02:01.823Z,2.72
2024-05-09T08:04:26.663Z,4.57
2024-05-09T08:06:50.237Z,3.40
2024-05-09T08:09:19.460Z,3.67
2024-05-09T08:11:45.000Z,4.32
2024-05-09T08:14:10.871Z,4.90
2024-05-09T08:16:34.237Z,2.80
2024-05-09T08:18:57.963Z,4.40
2024-05-09T08:21:21.300Z,3.53
2024-05-09T08:23:44.659Z,5.43
2024-05-09T08:26:08.060Z,8.45
2024-05-09T08:28:31.705Z,6.38
2024-05-09T08:30:55.521Z,10.98
2024-05-09T08:33:19.582Z,3.60
2024-05-09T08:35:43.264Z,3.88
2024-05-09T08:38:08.027Z,6.80
2024-05-09T08:40:36.475Z,5.80
2024-05-09T08:43:01.743Z,3.90
2024-05-09T08:45:25.861Z,4.57
2024-05-09T08:47:51.304Z,3.00
2024-05-09T08:50:28.395Z,2.83
2024-05-09T08:52:59.170Z,3.13
2024-05-09T08:55:22.838Z,3.90
2024-05-09T08:57:49.170Z,8.47
2024-05-09T09:00:21.691Z,5.07
2024-05-09T09:02:53.098Z,4.70
2024-05-09T09:05:17.906Z,2.97
2024-05-09T09:07:41.471Z,5.10
2024-05-09T09:10:08.555Z,4.47
2024-05-09T09:12:32.675Z,4.63
2024-05-09T09:14:56.537Z,3.38
2024-05-09T09:17:20.728Z,4.13
2024-05-09T09:19:45.016Z,3.88
2024-05-09T09:22:11.408Z,4.70
2024-05-09T09:24:34.912Z,3.38
2024-05-09T09:27:01.349Z,3.33
2024-05-09T09:29:25.879Z,4.70
2024-05-09T09:32:07.533Z,3.50
2024-05-09T09:34:32.315Z,4.67
2024-05-09T09:36:59.332Z,3.38
2024-05-09T09:39:25.204Z,4.22
2024-05-09T09:41:49.080Z,5.60
2024-05-09T09:44:15.471Z,5.80
2024-05-09T09:46:39.884Z,3.37
2024-05-09T09:49:03.437Z,3.42
2024-05-09T09:51:27.447Z,3.97
2024-05-09T09:53:53.211Z,3.40
2024-05-09T09:56:18.238Z,5.38
2024-05-09T09:58:44.234Z,5.47
2024-05-09T10:01:07.697Z,5.18
2024-05-09T10:03:32.805Z,5.22
2024-05-09T10:05:57.489Z,3.90
2024-05-09T10:08:24.262Z,4.43
2024-05-09T10:10:48.156Z,3.87
2024-05-09T10:13:14.762Z,2.75
2024-05-09T10:15:51.295Z,4.47
2024-05-09T10:18:15.852Z,3.78
2024-05-09T10:20:46.343Z,3.13
2024-05-09T10:23:28.388Z,3.23
2024-05-09T10:26:06.246Z,5.50
2024-05-09T10:28:35.530Z,2.75
2024-05-09T10:31:16.750Z,3.60
2024-05-09T10:33:45.828Z,4.45
2024-05-09T10:36:20.433Z,2.27
2024-05-09T10:38:44.492Z,3.78
2024-05-09T10:41:09.164Z,4.28
2024-05-09T10:43:39.929Z,3.13
2024-05-09T10:46:05.177Z,4.00
2024-05-09T10:48:28.879Z,3.23
2024-05-09T10:50:53.550Z,2.80
2024-05-09T10:53:19.390Z,4.20
2024-05-09T10:55:56.853Z,2.33
2024-05-09T10:58:22.790Z,2.70
2024-05-09T11:00:46.488Z,3.47
2024-05-09T11:03:12.333Z,1.63
2024-05-09T11:05:36.655Z,6.85
2024-05-09T11:08:00.905Z,2.72
2024-05-09T11:10:27.955Z,2.72
2024-05-09T11:12:57.338Z,2.23
2024-05-09T11:15:20.781Z,4.20
2024-05-09T11:17:44.256Z,2.88
2024-05-09T11:20:13.576Z,4.00
2024-05-09T11:22:40.521Z,5.30
2024-05-09T11:25:04.680Z,5.43
2024-05-09T11:27:28.099Z,3.83
2024-05-09T11:29:51.401Z,4.82
2024-05-09T11:32:16.601Z,3.50
2024-05-09T11:34:42.016Z,2.05
2024-05-09T11:37:05.670Z,3.70
2024-05-09T11:39:29.439Z,2.78
2024-05-09T11:41:55.106Z,3.65
2024-05-09T11:44:18.415Z,4.43
2024-05-09T11:46:43.968Z,4.93
2024-05-09T11:49:08.305Z,3.27
2024-05-09T11:51:32.393Z,2.65
2024-05-09T11:53:56.134Z,4.47
2024-05-09T11:56:19.587Z,3.17
2024-05-09T11:58:43.046Z,4.68
2024-05-09T12:01:06.529Z,2.73
2024-05-09T12:03:32.514Z,7.55
2024-05-09T12:05:56.150Z,3.40
2024-05-09T12:08:19.884Z,2.53
2024-05-09T12:10:43.346Z,2.67
2024-05-09T12:13:10.723Z,4.97
2024-05-09T12:15:39.094Z,3.83
2024-05-09T12:18:04.236Z,2.72
2024-05-09T12:20:35.438Z,3.55
2024-05-09T12:23:01.765Z,6.30
2024-05-09T12:25:25.250Z,3.13
2024-05-09T12:27:48.762Z,3.47
2024-05-09T12:30:17.245Z,3.35
2024-05-09T12:32:49.848Z,5.32
2024-05-09T12:35:13.463Z,2.83
2024-05-09T12:37:36.786Z,4.33
2024-05-09T12:40:00.373Z,3.03
2024-05-09T12:42:27.470Z,2.95
2024-05-09T12:44:52.800Z,2.22
2024-05-09T12:47:19.446Z,3.42
2024-05-09T12:49:42.849Z,3.20
2024-05-09T12:52:06.523Z,1.85
2024-05-09T12:54:29.882Z,2.30
2024-05-09T12:56:53.248Z,4.25
2024-05-09T12:59:16.591Z,2.67
2024-05-09T13:01:40.085Z,3.17
2024-05-09T13:04:03.707Z,2.78
2024-05-09T13:06:27.098Z,1.80
2024-05-09T13:08:58.772Z,3.05
2024-05-09T13:11:22.347Z,3.75
2024-05-09T13:13:45.733Z,2.23
2024-05-09T13:16:09.038Z,1.90
2024-05-09T13:18:33.668Z,2.15
2024-05-09T13:20:57.708Z,2.92
2024-05-09T13:23:21.030Z,3.28
2024-05-09T13:25:44.531Z,4.60
2024-05-09T13:28:08.190Z,3.00
2024-05-09T13:30:39.242Z,5.25
2024-05-09T13:33:06.057Z,4.93
2024-05-09T13:35:32.077Z,4.00
2024-05-09T13:37:55.503Z,2.60
2024-05-09T13:40:30.094Z,5.50
2024-05-09T13:42:57.452Z,2.30
2024-05-09T13:45:20.774Z,2.80
2024-05-09T13:47:44.407Z,5.32
2024-05-09T13:50:11.503Z,2.53
2024-05-09T13:52:37.596Z,3.35
2024-05-09T13:55:00.927Z,3.88
2024-05-09T13:57:24.259Z,3.65
2024-05-09T13:59:47.548Z,4.93
2024-05-09T14:02:11.081Z,4.83
2024-05-09T14:04:34.587Z,3.80
2024-05-09T14:06:57.909Z,2.10
2024-05-09T14:09:21.330Z,2.05
2024-05-09T14:11:45.265Z,4.15
2024-05-09T14:14:09.163Z,2.90
2024-05-09T14:16:33.791Z,3.03
2024-05-09T14:18:57.232Z,2.67
2024-05-09T14:21:20.511Z,4.20
2024-05-09T14:23:44.333Z,2.40
2024-05-09T14:26:07.620Z,2.30
2024-05-09T14:28:30.891Z,3.05
2024-05-09T14:30:56.683Z,2.70
2024-05-09T14:33:26.921Z,2.67
2024-05-09T14:35:50.576Z,2.53
2024-05-09T14:38:14.431Z,3.47
2024-05-09T14:40:42.947Z,2.88
2024-05-09T14:43:08.133Z,2.03
2024-05-09T14:45:32.903Z,2.08
2024-05-09T14:47:56.662Z,3.15
2024-05-09T14:50:28.043Z,3.53
2024-05-09T14:52:58.466Z,2.10
2024-05-09T14:55:21.865Z,2.22
2024-05-09T14:57:45.340Z,2.92
2024-05-09T15:00:20.876Z,3.30
2024-05-09T15:02:49.858Z,2.93
2024-05-09T15:05:13.569Z,1.92
2024-05-09T15:07:37.794Z,3.30
2024-05-09T15:10:01.107Z,3.38
2024-05-09T15:12:24.855Z,3.08
2024-05-09T15:14:48.213Z,3.10
2024-05-09T15:17:11.776Z,2.72
2024-05-09T15:19:38.482Z,2.00
2024-05-09T15:22:02.038Z,4.15
2024-05-09T15:24:25.484Z,3.47
2024-05-09T15:26:49.454Z,2.00
2024-05-09T15:29:13.381Z,3.42
2024-05-09T15:31:36.640Z,3.05
2024-05-09T15:34:00.043Z,5.03
2024-05-09T15:36:24.006Z,3.03
2024-05-09T15:38:47.944Z,2.60
2024-05-09T15:41:14.229Z,4.00
2024-05-09T15:43:38.117Z,2.67
2024-05-09T15:46:02.190Z,1.67
2024-05-09T15:48:26.044Z,2.15
2024-05-09T15:50:50.194Z,2.20
2024-05-09T15:53:15.240Z,2.63
2024-05-09T15:55:39.501Z,4.63
2024-05-09T15:58:04.649Z,3.83
2024-05-09T16:00:36.786Z,1.75
2024-05-09T16:03:04.145Z,2.07
2024-05-09T16:05:27.926Z,2.10
2024-05-09T16:07:51.336Z,2.25
2024-05-09T16:10:20.256Z,2.13
2024-05-09T16:12:49.010Z,2.45
2024-05-09T16:15:12.384Z,2.03
2024-05-09T16:17:36.039Z,5.93
2024-05-09T16:19:59.394Z,4.30
2024-05-09T16:22:22.697Z,4.78
2024-05-09T16:24:45.988Z,3.80
2024-05-09T16:27:09.614Z,2.70
2024-05-09T16:29:32.895Z,5.22
2024-05-09T16:31:57.087Z,2.50
2024-05-09T16:34:20.622Z,5.28
2024-05-09T16:36:44.199Z,4.00
2024-05-09T16:39:07.542Z,3.23
2024-05-09T16:41:30.955Z,4.38
2024-05-09T16:43:54.211Z,2.95
2024-05-09T16:46:17.661Z,2.55
2024-05-09T16:48:42.788Z,2.75
2024-05-09T16:51:06.352Z,2.33
2024-05-09T16:53:29.645Z,3.47
2024-05-09T16:55:52.976Z,1.55
2024-05-09T16:58:16.489Z,1.90
2024-05-09T17:00:43.400Z,4.57
2024-05-09T17:03:08.116Z,3.33
2024-05-09T17:05:31.675Z,3.60
2024-05-09T17:07:55.293Z,3.55
2024-05-09T17:10:26.678Z,3.30
2024-05-09T17:12:55.513Z,1.83
2024-05-09T17:15:19.069Z,1.93
2024-05-09T17:17:43.096Z,2.72
2024-05-09T17:20:22.493Z,2.72
2024-05-09T17:22:52.726Z,2.38
2024-05-09T17:25:16.411Z,4.28
2024-05-09T17:27:40.535Z,5.67
2024-05-09T17:30:06.381Z,4.40
2024-05-09T17:32:33.066Z,3.83
2024-05-09T17:34:56.360Z,3.33
2024-05-09T17:37:19.858Z,4.72
2024-05-09T17:39:43.213Z,2.03
2024-05-09T17:42:07.616Z,3.45
2024-05-09T17:44:32.930Z,2.30
2024-05-09T17:46:56.819Z,2.88
2024-05-09T17:49:20.167Z,3.53
2024-05-09T17:51:53.791Z,3.50
2024-05-09T17:54:17.507Z,3.10
2024-05-09T17:56:41.006Z,2.47
2024-05-09T17:59:06.475Z,5.10
2024-05-09T18:01:32.398Z,3.33
2024-05-09T18:03:55.989Z,3.10
2024-05-09T18:06:20.399Z,4.88
2024-05-09T18:08:44.698Z,3.45
2024-05-09T18:11:08.189Z,3.85
2024-05-09T18:13:32.162Z,7.50
2024-05-09T18:15:56.152Z,8.47
2024-05-09T18:18:20.013Z,4.80
2024-05-09T18:20:45.794Z,4.07
2024-05-09T18:23:10.634Z,3.72
2024-05-09T18:25:33.998Z,3.80
2024-05-09T18:27:57.549Z,3.60
2024-05-09T18:30:28.067Z,3.28
2024-05-09T18:32:57.575Z,3.10
2024-05-09T18:35:24.055Z,2.50
2024-05-09T18:37:48.113Z,4.07
2024-05-09T18:40:15.010Z,4.83
2024-05-09T18:42:41.674Z,4.68
2024-05-09T18:45:05.705Z,4.22
2024-05-09T18:47:29.450Z,4.93
2024-05-09T18:49:53.196Z,3.55
2024-05-09T18:52:16.615Z,5.27
2024-05-09T18:54:40.069Z,5.05
2024-05-09T18:57:03.600Z,7.35
2024-05-09T18:59:27.202Z,7.70
2024-05-09T19:01:50.921Z,4.82
2024-05-09T19:04:18.456Z,6.30
2024-05-09T19:06:46.425Z,5.68
2024-05-09T19:09:10.572Z,4.65
2024-05-09T19:11:34.566Z,7.90
2024-05-09T19:14:04.225Z,5.20
2024-05-09T19:16:27.995Z,4.30
2024-05-09T19:18:51.949Z,6.00
2024-05-09T19:21:16.245Z,5.75
2024-05-09T19:23:46.837Z,6.28
2024-05-09T19:26:14.251Z,5.40
2024-05-09T19:28:37.960Z,7.03
2024-05-09T19:31:01.714Z,10.65
2024-05-09T19:33:26.312Z,8.68
2024-05-09T19:35:49.660Z,6.97
2024-05-09T19:38:13.627Z,6.55
2024-05-09T19:40:37.412Z,5.23
2024-05-09T19:43:03.039Z,6.15
2024-05-09T19:45:26.958Z,6.65
2024-05-09T19:47:50.709Z,7.55
2024-05-09T19:50:19.715Z,7.68
2024-05-09T19:52:49.539Z,7.90
2024-05-09T19:55:12.886Z,6.40
2024-05-09T19:57:36.192Z,5.03
2024-05-09T19:59:59.358Z,7.03
2024-05-09T20:02:23.997Z,6.78
2024-05-09T20:04:48.975Z,6.80
2024-05-09T20:07:13.312Z,8.63
2024-05-09T20:09:37.107Z,6.10
2024-05-09T20:12:01.092Z,6.63
2024-05-09T20:14:25.080Z,5.13
2024-05-09T20:16:49.099Z,8.63
2024-05-09T20:19:13.000Z,6.22
2024-05-09T20:21:42.565Z,7.43
2024-05-09T20:24:10.420Z,4.68
2024-05-09T20:26:35.912Z,6.50
2024-05-09T20:28:59.491Z,5.80
2024-05-09T20:31:23.190Z,9.77
2024-05-09T20:33:47.812Z,11.07
2024-05-09T20:36:13.311Z,7.45
2024-05-09T20:38:38.273Z,6.75
2024-05-09T20:41:01.569Z,10.00
2024-05-09T20:43:25.270Z,9.32
2024-05-09T20:45:49.019Z,7.05
2024-05-09T20:48:13.643Z,9.07
2024-05-09T20:50:40.793Z,10.02
2024-05-09T20:53:05.905Z,13.00
2024-05-09T20:55:30.135Z,16.13
2024-05-09T20:57:53.569Z,11.65
2024-05-09T21:00:19.319Z,11.43
2024-05-09T21:02:49.067Z,8.00
2024-05-09T21:05:13.794Z,8.23
2024-05-09T21:07:37.079Z,5.38
2024-05-09T21:10:00.434Z,8.60
2024-05-09T21:12:23.990Z,11.68
2024-05-09T21:14:47.179Z,6.63
2024-05-09T21:17:10.615Z,7.83
2024-05-09T21:19:33.867Z,8.57
2024-05-09T21:21:57.168Z,8.45
2024-05-09T21:24:20.879Z,8.48
2024-05-09T21:26:44.623Z,5.90
2024-05-09T21:29:07.907Z,8.63
2024-05-09T21:31:31.378Z,8.15
2024-05-09T21:33:54.816Z,7.95
2024-05-09T21:36:18.663Z,6.85
2024-05-09T21:38:42.346Z,6.18
2024-05-09T21:41:07.717Z,5.83
2024-05-09T21:43:31.638Z,6.28
2024-05-09T21:45:54.939Z,6.60
2024-05-09T21:48:18.624Z,5.45
2024-05-09T21:50:42.668Z,4.75
2024-05-09T21:53:06.534Z,4.57
2024-05-09T21:55:30.258Z,6.13
2024-05-09T21:57:53.568Z,5.95
2024-05-09T22:00:28.569Z,4.80
2024-05-09T22:02:58.452Z,4.70
2024-05-09T22:05:21.911Z,6.10
2024-05-09T22:07:45.329Z,6.38
2024-05-09T22:10:19.487Z,6.30
2024-05-09T22:12:46.062Z,6.95
2024-05-09T22:15:09.571Z,5.75
2024-05-09T22:17:32.943Z,5.87
2024-05-09T22:19:56.206Z,5.97
2024-05-09T22:22:20.477Z,5.40
2024-05-09T22:24:43.787Z,6.97
2024-05-09T22:27:08.826Z,5.03
2024-05-09T22:29:32.103Z,6.70
2024-05-09T22:31:55.425Z,5.65
2024-05-09T22:34:18.812Z,5.28
2024-05-09T22:36:42.180Z,6.30
2024-05-09T22:39:06.714Z,4.88
2024-05-09T22:41:29.999Z,5.57
2024-05-09T22:43:53.318Z,6.40
2024-05-09T22:46:16.669Z,7.15
2024-05-09T22:48:40.101Z,6.03
2024-05-09T22:51:03.484Z,7.25
2024-05-09T22:53:26.754Z,5.47
2024-05-09T22:55:49.960Z,5.10
2024-05-09T22:58:13.294Z,5.55
2024-05-09T23:00:36.698Z,7.07
2024-05-09T23:03:03.581Z,5.40
2024-05-09T23:05:27.252Z,5.10
2024-05-09T23:07:50.587Z,6.18
2024-05-09T23:10:20.955Z,5.10
2024-05-09T23:12:50.542Z,4.82
2024-05-09T23:15:13.965Z,4.50
2024-05-09T23:17:37.585Z,6.10
2024-05-09T23:20:01.027Z,6.65
2024-05-09T23:22:24.248Z,7.80
2024-05-09T23:24:48.015Z,5.03
2024-05-09T23:27:11.391Z,9.40
2024-05-09T23:29:34.611Z,6.50
2024-05-09T23:31:57.916Z,7.38
2024-05-09T23:34:21.502Z,5.07
2024-05-09T23:36:44.853Z,7.03
2024-05-09T23:39:08.150Z,5.50
2024-05-09T23:41:31.523Z,6.67
2024-05-09T23:43:54.710Z,5.72
2024-05-09T23:46:17.985Z,4.68
2024-05-09T23:48:41.393Z,6.28
2024-05-09T23:51:04.711Z,5.78
2024-05-09T23:53:27.939Z,6.73
2024-05-09T23:55:51.242Z,7.13
2024-05-09T23:58:14.450Z,4.50
